Terminal Aerodrome Forecast
Issued by NWS

Home | Current Version | Previous Version | Text Only | Print | Product List | Glossary On
Versions: 1 2 3 4 5 6 7 8 9 10 11 12 13 14 15 16 17 18 19 20 21 22 23 24 25 26 27 28 29 30 31 32 33 34 35 36 37 38 39 40 41 42 43 44 45
000
FTUS43 KMKX 140520
TAFUES
TAF
KUES 140520Z 1406/1506 14004KT P6SM BKN250
     FM141400 16006KT P6SM OVC130
     FM141600 16010KT 6SM -SN OVC080
     FM141800 15013KT 3SM -SN OVC045
     FM142000 14013KT 1SM -SN OVC025
     FM142100 14013KT 1SM -SN OVC020
     FM150400 16009KT 3SM -SN OVC020=

USA.gov is the U.S. government's official web portal to all federal, state and local government web resources and services.